Time;durP1;ratioP1;P1;durP2;ratioP2;P2;SDS_P1;SDS_P2;PMS_P1;PMS_P2;Temp;Humidity;BMP_temperature;BMP_pressure;BME280_temperature;BME280_humidity;BME280_pressure;Samples;Min_cycle;Max_cycle;Signal;HPM_P1;HPM_P2
2023/07/02 00:00:33;;;;;;;6.23;3.77;;;;;;;;;;5054922;28;20404;-80
2023/07/02 00:03:01;;;;;;;8.73;3.17;;;;;;;;;;5035841;28;20474;-81
2023/07/02 00:05:27;;;;;;;10.13;4.20;;;;;;;;;;5053123;28;20516;-80
2023/07/02 00:07:54;;;;;;;9.10;3.87;;;;;;;;;;5052863;28;20870;-80
2023/07/02 00:10:20;;;;;;;6.70;4.50;;;;;;;;;;5052522;28;20420;-80
2023/07/02 00:12:46;;;;;;;10.17;3.80;;;;;;;;;;5053022;28;20492;-80
2023/07/02 00:15:12;;;;;;;9.70;4.17;;;;;;;;;;5055097;28;20890;-80
2023/07/02 00:17:40;;;;;;;7.83;4.83;;;;;;;;;;5052458;28;20503;-80
2023/07/02 00:20:13;;;;;;;7.37;4.20;;;;;;;;;;5053533;28;20572;-80
2023/07/02 00:22:41;;;;;;;6.50;4.23;;;;;;;;;;5052904;28;20399;-80
2023/07/02 00:25:07;;;;;;;6.00;4.00;;;;;;;;;;5052089;28;20416;-80
2023/07/02 00:27:33;;;;;;;8.73;4.27;;;;;;;;;;5053268;28;20404;-80
2023/07/02 00:29:59;;;;;;;10.37;4.13;;;;;;;;;;5052762;28;20410;-81
2023/07/02 00:32:25;;;;;;;6.50;4.23;;;;;;;;;;5039259;28;20459;-79
2023/07/02 00:34:51;;;;;;;7.33;3.77;;;;;;;;;;5058190;28;20400;-80
2023/07/02 00:37:17;;;;;;;8.07;3.93;;;;;;;;;;5057154;28;20473;-80
2023/07/02 00:39:43;;;;;;;12.93;4.50;;;;;;;;;;5039747;28;20443;-81
2023/07/02 00:42:11;;;;;;;12.47;4.03;;;;;;;;;;5056612;28;20419;-81
2023/07/02 00:44:40;;;;;;;8.90;4.53;;;;;;;;;;5040429;28;20897;-81
2023/07/02 00:47:07;;;;;;;9.73;4.20;;;;;;;;;;5055673;28;20420;-81
2023/07/02 00:49:33;;;;;;;9.93;4.60;;;;;;;;;;5056915;28;20416;-81
2023/07/02 00:51:59;;;;;;;8.20;5.20;;;;;;;;;;5057975;28;20386;-80
2023/07/02 00:54:28;;;;;;;8.57;5.03;;;;;;;;;;5056219;28;20444;-80
2023/07/02 00:56:54;;;;;;;9.50;5.37;;;;;;;;;;5057721;28;20381;-81
2023/07/02 00:59:20;;;;;;;9.23;5.10;;;;;;;;;;5039562;28;20439;-81
2023/07/02 01:01:49;;;;;;;8.07;5.50;;;;;;;;;;5057161;28;20529;-80
2023/07/02 01:04:17;;;;;;;13.90;5.20;;;;;;;;;;5056820;28;20459;-81
2023/07/02 01:06:43;;;;;;;13.53;5.40;;;;;;;;;;5057396;28;20453;-82
2023/07/02 01:09:09;;;;;;;9.30;4.67;;;;;;;;;;5055972;28;20404;-80
2023/07/02 01:11:35;;;;;;;9.90;6.33;;;;;;;;;;5056521;28;20400;-81
2023/07/02 01:14:30;;;;;;;14.87;5.90;;;;;;;;;;5057236;28;20825;-81
2023/07/02 01:16:57;;;;;;;14.50;6.53;;;;;;;;;;5047117;28;20454;-81
2023/07/02 01:19:42;;;;;;;12.83;6.37;;;;;;;;;;5055829;28;20453;-81
2023/07/02 01:22:08;;;;;;;15.00;6.73;;;;;;;;;;5056127;28;20538;-81
2023/07/02 01:24:35;;;;;;;13.40;5.70;;;;;;;;;;5056966;28;20404;-80
2023/07/02 01:27:01;;;;;;;15.40;6.03;;;;;;;;;;5057184;28;20420;-81
2023/07/02 01:29:29;;;;;;;10.00;6.73;;;;;;;;;;5056219;28;20413;-80
2023/07/02 01:31:55;;;;;;;12.50;7.10;;;;;;;;;;5055423;28;20871;-80
2023/07/02 01:34:21;;;;;;;16.43;7.27;;;;;;;;;;5056877;28;20420;-80
2023/07/02 01:36:47;;;;;;;12.43;7.40;;;;;;;;;;5039227;28;20439;-81
2023/07/02 01:39:13;;;;;;;19.10;8.07;;;;;;;;;;5055286;28;20408;-81
2023/07/02 01:41:44;;;;;;;15.60;8.00;;;;;;;;;;5057269;28;20487;-80
2023/07/02 01:44:10;;;;;;;12.77;6.90;;;;;;;;;;5054092;28;20895;-80
2023/07/02 01:46:36;;;;;;;15.23;8.53;;;;;;;;;;5056583;28;20428;-80
2023/07/02 01:49:02;;;;;;;16.13;8.03;;;;;;;;;;5055447;28;20446;-80
2023/07/02 01:51:28;;;;;;;17.50;9.70;;;;;;;;;;5056363;28;20419;-81
2023/07/02 01:53:54;;;;;;;15.33;7.80;;;;;;;;;;5055805;28;20460;-80
2023/07/02 01:56:20;;;;;;;16.27;8.20;;;;;;;;;;5056024;28;20786;-80
2023/07/02 01:58:46;;;;;;;15.93;10.20;;;;;;;;;;5056818;28;20424;-81
2023/07/02 02:01:12;;;;;;;15.17;8.57;;;;;;;;;;5055605;28;20417;-80
2023/07/02 02:03:38;;;;;;;18.53;9.70;;;;;;;;;;5055745;28;20428;-80
2023/07/02 02:06:04;;;;;;;17.20;9.53;;;;;;;;;;5038635;28;21032;-80
2023/07/02 02:08:30;;;;;;;16.33;10.33;;;;;;;;;;5056037;28;20416;-80
2023/07/02 02:10:56;;;;;;;14.53;9.57;;;;;;;;;;5056800;28;20792;-81
2023/07/02 02:13:22;;;;;;;19.13;9.40;;;;;;;;;;5055139;28;20460;-81
2023/07/02 02:15:48;;;;;;;17.30;9.40;;;;;;;;;;5056508;28;20416;-82
2023/07/02 02:18:14;;;;;;;15.20;10.00;;;;;;;;;;5055721;28;20434;-81
2023/07/02 02:20:40;;;;;;;19.33;9.90;;;;;;;;;;5056436;28;20426;-81
2023/07/02 02:23:06;;;;;;;15.57;9.13;;;;;;;;;;5056485;28;20419;-81
2023/07/02 02:25:32;;;;;;;13.53;8.60;;;;;;;;;;5056510;28;20407;-81
2023/07/02 02:27:58;;;;;;;21.27;10.53;;;;;;;;;;5056214;28;20451;-81
2023/07/02 02:30:24;;;;;;;23.30;11.37;;;;;;;;;;5055250;28;20773;-81
2023/07/02 02:32:50;;;;;;;17.57;10.13;;;;;;;;;;5055998;28;20471;-81
2023/07/02 02:35:16;;;;;;;16.23;9.80;;;;;;;;;;5054737;28;20912;-81
2023/07/02 02:37:42;;;;;;;24.90;11.80;;;;;;;;;;5054720;28;20412;-81
2023/07/02 02:40:11;;;;;;;20.80;9.50;;;;;;;;;;5055414;28;20409;-81
2023/07/02 02:42:37;;;;;;;18.63;10.80;;;;;;;;;;5038233;28;20428;-81
2023/07/02 02:45:03;;;;;;;26.03;10.50;;;;;;;;;;5056246;28;20458;-81
2023/07/02 02:47:29;;;;;;;16.73;11.37;;;;;;;;;;5056194;28;20371;-81
2023/07/02 02:49:55;;;;;;;18.87;11.23;;;;;;;;;;5055076;28;20947;-81
2023/07/02 02:52:21;;;;;;;26.50;11.23;;;;;;;;;;5054913;28;20471;-81
2023/07/02 02:54:47;;;;;;;18.67;10.70;;;;;;;;;;5037787;28;20460;-83
2023/07/02 02:57:13;;;;;;;20.67;11.47;;;;;;;;;;5054403;28;20383;-81
2023/07/02 02:59:39;;;;;;;18.47;10.57;;;;;;;;;;5056160;28;20428;-81
2023/07/02 03:02:05;;;;;;;20.90;10.80;;;;;;;;;;5055447;28;20930;-81
2023/07/02 03:04:32;;;;;;;17.27;11.50;;;;;;;;;;5055342;28;20416;-81
2023/07/02 03:06:58;;;;;;;15.67;10.73;;;;;;;;;;5054422;28;20391;-81
2023/07/02 03:09:24;;;;;;;20.63;11.30;;;;;;;;;;5055807;28;20744;-81
2023/07/02 03:11:50;;;;;;;20.97;12.17;;;;;;;;;;5055425;28;20415;-82
2023/07/02 03:14:16;;;;;;;25.57;12.30;;;;;;;;;;5054579;28;20563;-81
2023/07/02 03:16:42;;;;;;;26.43;13.10;;;;;;;;;;5053925;28;20452;-81
2023/07/02 03:19:08;;;;;;;22.97;13.00;;;;;;;;;;5055361;28;20452;-81
2023/07/02 03:21:34;;;;;;;19.23;11.53;;;;;;;;;;5054003;28;20420;-81
2023/07/02 03:24:00;;;;;;;20.83;11.57;;;;;;;;;;5054115;28;20501;-81
2023/07/02 03:26:26;;;;;;;21.13;12.30;;;;;;;;;;5055330;28;20427;-81
2023/07/02 03:28:52;;;;;;;20.63;12.83;;;;;;;;;;5037018;28;20442;-81
2023/07/02 03:31:18;;;;;;;26.37;12.23;;;;;;;;;;5054665;28;20466;-81
2023/07/02 03:33:44;;;;;;;19.77;12.90;;;;;;;;;;5054216;28;20462;-81
2023/07/02 03:36:10;;;;;;;19.87;12.20;;;;;;;;;;5053436;28;20407;-80
2023/07/02 03:38:36;;;;;;;28.20;13.77;;;;;;;;;;5054179;28;20407;-81
2023/07/02 03:41:02;;;;;;;30.40;13.30;;;;;;;;;;5054082;28;20455;-81
2023/07/02 03:43:28;;;;;;;21.43;13.53;;;;;;;;;;5053480;28;20448;-81
2023/07/02 03:45:54;;;;;;;23.43;14.23;;;;;;;;;;5036978;28;20815;-81
2023/07/02 03:48:20;;;;;;;23.50;13.57;;;;;;;;;;5055274;28;20412;-81
2023/07/02 03:50:46;;;;;;;20.70;11.83;;;;;;;;;;5053553;28;20398;-81
2023/07/02 03:53:12;;;;;;;25.70;14.03;;;;;;;;;;5054702;28;20438;-81
2023/07/02 03:55:39;;;;;;;27.20;12.40;;;;;;;;;;5053825;28;20400;-81
2023/07/02 03:58:05;;;;;;;23.37;13.90;;;;;;;;;;5053349;28;20451;-80
2023/07/02 04:00:31;;;;;;;24.17;13.13;;;;;;;;;;5055416;28;20415;-80
2023/07/02 04:02:57;;;;;;;24.30;13.77;;;;;;;;;;5053291;28;20461;-80
2023/07/02 04:05:23;;;;;;;28.87;13.40;;;;;;;;;;5053484;28;20416;-80
2023/07/02 04:07:49;;;;;;;26.80;15.70;;;;;;;;;;5053763;28;20424;-80
2023/07/02 04:10:15;;;;;;;29.00;14.80;;;;;;;;;;5054878;28;20408;-80
2023/07/02 04:12:41;;;;;;;20.07;13.93;;;;;;;;;;5054881;28;20932;-81
2023/07/02 04:15:08;;;;;;;24.87;14.93;;;;;;;;;;5053532;28;20416;-80
2023/07/02 04:17:34;;;;;;;24.40;13.00;;;;;;;;;;5054779;28;20736;-81
2023/07/02 04:20:00;;;;;;;32.93;16.13;;;;;;;;;;5054940;28;20374;-80
2023/07/02 04:22:26;;;;;;;27.23;14.70;;;;;;;;;;5054444;28;20445;-81
2023/07/02 04:24:52;;;;;;;22.63;14.20;;;;;;;;;;5053428;28;20872;-84
2023/07/02 04:27:18;;;;;;;25.83;14.33;;;;;;;;;;5053341;28;20442;-80
2023/07/02 04:29:45;;;;;;;25.60;15.70;;;;;;;;;;5054612;28;20412;-81
2023/07/02 04:32:11;;;;;;;26.97;15.37;;;;;;;;;;5054121;28;20423;-81
2023/07/02 04:34:37;;;;;;;29.90;15.90;;;;;;;;;;5054410;28;20379;-80
2023/07/02 04:37:04;;;;;;;26.30;15.93;;;;;;;;;;5053310;28;20480;-81
2023/07/02 04:39:30;;;;;;;25.47;15.77;;;;;;;;;;5054878;28;20407;-80
2023/07/02 04:41:56;;;;;;;26.97;15.53;;;;;;;;;;5054347;28;20411;-80
2023/07/02 04:44:28;;;;;;;29.77;16.80;;;;;;;;;;5053502;28;20467;-81
2023/07/02 04:46:54;;;;;;;29.23;16.73;;;;;;;;;;5054185;28;20437;-81
2023/07/02 04:49:20;;;;;;;23.60;15.00;;;;;;;;;;5054673;28;20379;-81
2023/07/02 04:51:46;;;;;;;30.80;17.83;;;;;;;;;;5053282;28;20491;-80
2023/07/02 04:54:12;;;;;;;38.13;19.03;;;;;;;;;;5054400;28;20463;-80
2023/07/02 04:56:38;;;;;;;27.20;16.90;;;;;;;;;;5053616;28;20939;-80
2023/07/02 04:59:04;;;;;;;28.73;17.17;;;;;;;;;;5053175;28;20830;-80
2023/07/02 05:01:30;;;;;;;27.67;15.73;;;;;;;;;;5053006;28;20456;-80
2023/07/02 05:03:56;;;;;;;33.27;16.77;;;;;;;;;;5052871;28;20427;-82
2023/07/02 05:06:22;;;;;;;37.77;19.00;;;;;;;;;;5054482;28;20408;-80
2023/07/02 05:08:48;;;;;;;34.10;18.50;;;;;;;;;;5053316;28;20390;-81
2023/07/02 05:11:14;;;;;;;41.10;19.60;;;;;;;;;;5052975;28;20511;-81
2023/07/02 05:13:40;;;;;;;29.17;16.03;;;;;;;;;;5054459;28;20531;-81
2023/07/02 05:16:06;;;;;;;30.53;17.40;;;;;;;;;;5053051;28;20436;-81
2023/07/02 05:18:32;;;;;;;37.50;19.87;;;;;;;;;;5054498;28;20767;-81
2023/07/02 05:20:58;;;;;;;29.20;17.50;;;;;;;;;;5056234;28;20383;-82
2023/07/02 05:23:24;;;;;;;31.67;18.00;;;;;;;;;;5056486;28;20978;-81
2023/07/02 05:25:50;;;;;;;36.13;18.83;;;;;;;;;;5057459;28;20758;-81
2023/07/02 05:28:16;;;;;;;33.00;18.60;;;;;;;;;;5057226;28;20432;-81
2023/07/02 05:30:42;;;;;;;32.33;19.17;;;;;;;;;;5057262;28;20393;-81
2023/07/02 05:33:08;;;;;;;28.53;18.17;;;;;;;;;;5039658;28;20903;-81
2023/07/02 05:35:34;;;;;;;31.27;18.60;;;;;;;;;;5055913;28;20423;-81
2023/07/02 05:38:00;;;;;;;33.37;17.80;;;;;;;;;;5039380;28;20515;-81
2023/07/02 05:40:26;;;;;;;38.83;18.83;;;;;;;;;;5039533;28;20470;-81
2023/07/02 05:42:52;;;;;;;43.33;19.37;;;;;;;;;;5056108;28;20463;-80
2023/07/02 05:45:18;;;;;;;36.23;16.83;;;;;;;;;;5055870;28;20888;-80
2023/07/02 05:47:44;;;;;;;33.33;18.47;;;;;;;;;;5056368;28;20412;-81
2023/07/02 05:50:10;;;;;;;33.40;19.40;;;;;;;;;;5057039;28;20404;-81
2023/07/02 05:52:36;;;;;;;34.57;19.80;;;;;;;;;;5055795;28;21012;-80
2023/07/02 05:55:02;;;;;;;34.37;19.37;;;;;;;;;;5057119;28;20420;-80
2023/07/02 05:57:28;;;;;;;35.93;18.77;;;;;;;;;;5055873;28;20411;-80
2023/07/02 05:59:54;;;;;;;31.20;16.97;;;;;;;;;;5056923;28;20444;-81
2023/07/02 06:02:20;;;;;;;27.97;18.53;;;;;;;;;;5055688;28;20427;-80
2023/07/02 06:04:46;;;;;;;35.70;19.63;;;;;;;;;;5055628;28;20771;-80
2023/07/02 06:07:12;;;;;;;32.60;19.50;;;;;;;;;;5055467;28;20416;-80
2023/07/02 06:09:38;;;;;;;36.53;18.70;;;;;;;;;;5055386;28;20424;-80
2023/07/02 06:12:04;;;;;;;31.13;19.27;;;;;;;;;;5056496;28;20408;-80
2023/07/02 06:14:30;;;;;;;33.57;18.13;;;;;;;;;;5056629;28;20479;-80
2023/07/02 06:16:57;;;;;;;45.07;20.13;;;;;;;;;;5055234;28;20416;-81
2023/07/02 06:19:23;;;;;;;34.53;19.80;;;;;;;;;;5054542;28;20461;-80
2023/07/02 06:21:49;;;;;;;33.77;21.47;;;;;;;;;;5054899;28;20398;-81
2023/07/02 06:24:15;;;;;;;33.77;18.23;;;;;;;;;;5055880;28;20419;-80
2023/07/02 06:26:41;;;;;;;32.97;20.03;;;;;;;;;;5056100;28;20420;-80
2023/07/02 06:29:07;;;;;;;29.50;20.10;;;;;;;;;;5037831;28;20427;-81
2023/07/02 06:31:33;;;;;;;38.67;20.33;;;;;;;;;;5056042;28;20499;-80
2023/07/02 06:33:59;;;;;;;37.73;20.80;;;;;;;;;;5056321;28;20430;-80
2023/07/02 06:36:24;;;;;;;35.97;19.67;;;;;;;;;;5055675;28;20859;-81
2023/07/02 06:38:50;;;;;;;32.43;20.00;;;;;;;;;;5054800;28;20432;-80
2023/07/02 06:41:17;;;;;;;30.27;18.27;;;;;;;;;;5055767;28;20375;-81
2023/07/02 06:43:43;;;;;;;38.07;17.63;;;;;;;;;;5055811;28;20469;-81
2023/07/02 06:46:10;;;;;;;31.13;19.50;;;;;;;;;;5055839;28;20378;-81
2023/07/02 06:48:36;;;;;;;36.00;18.60;;;;;;;;;;5055468;28;20387;-80
2023/07/02 06:51:02;;;;;;;33.83;18.93;;;;;;;;;;5037428;28;20399;-81
2023/07/02 06:53:28;;;;;;;34.10;18.13;;;;;;;;;;5054497;28;20778;-81
2023/07/02 06:55:54;;;;;;;37.23;18.90;;;;;;;;;;5054503;28;20474;-81
2023/07/02 06:58:20;;;;;;;35.03;17.40;;;;;;;;;;5054096;28;20998;-83
2023/07/02 07:00:46;;;;;;;32.13;18.13;;;;;;;;;;5053871;28;20508;-82
2023/07/02 07:03:12;;;;;;;36.97;18.23;;;;;;;;;;5055281;28;20767;-83
2023/07/02 07:05:38;;;;;;;39.50;20.50;;;;;;;;;;5055225;28;20389;-85
2023/07/02 07:08:04;;;;;;;35.90;18.93;;;;;;;;;;5037193;28;20494;-83
2023/07/02 07:10:34;;;;;;;32.17;18.50;;;;;;;;;;5053289;28;20416;-84
2023/07/02 07:13:00;;;;;;;26.10;15.07;;;;;;;;;;5053624;28;20991;-85
2023/07/02 07:15:26;;;;;;;33.63;18.73;;;;;;;;;;5053285;28;20423;-84
2023/07/02 07:17:52;;;;;;;26.53;15.17;;;;;;;;;;5053034;28;20407;-84
2023/07/02 07:20:19;;;;;;;34.53;15.90;;;;;;;;;;5054157;28;20426;-85
2023/07/02 07:22:45;;;;;;;31.63;18.40;;;;;;;;;;5054216;28;20488;-90
2023/07/02 07:25:11;;;;;;;31.23;17.13;;;;;;;;;;5037502;28;20918;-85
2023/07/02 07:27:37;;;;;;;31.10;16.10;;;;;;;;;;5053193;28;20379;-84
2023/07/02 07:30:03;;;;;;;34.43;16.57;;;;;;;;;;5052932;28;20383;-86
2023/07/02 07:32:29;;;;;;;23.23;15.23;;;;;;;;;;5054724;28;20475;-84
2023/07/02 07:34:55;;;;;;;35.83;16.03;;;;;;;;;;5028094;28;20433;-84
2023/07/02 07:37:20;;;;;;;34.63;17.63;;;;;;;;;;5033947;28;20413;-85
2023/07/02 07:39:46;;;;;;;28.03;14.37;;;;;;;;;;5016850;28;20395;-83
2023/07/02 07:42:16;;;;;;;25.20;13.73;;;;;;;;;;5026352;28;20992;-84
2023/07/02 07:44:42;;;;;;;29.37;16.20;;;;;;;;;;5051346;28;20990;-84
2023/07/02 07:47:08;;;;;;;34.67;17.40;;;;;;;;;;5035911;28;20422;-86
2023/07/02 07:49:34;;;;;;;27.10;15.77;;;;;;;;;;5052518;28;20878;-85
2023/07/02 07:52:00;;;;;;;28.13;15.17;;;;;;;;;;5052602;28;20442;-85
2023/07/02 07:54:26;;;;;;;23.33;15.13;;;;;;;;;;5053575;28;20467;-83
2023/07/02 07:56:52;;;;;;;27.53;14.03;;;;;;;;;;5052772;28;20416;-84
2023/07/02 07:59:18;;;;;;;29.43;14.70;;;;;;;;;;5051922;28;20481;-83
2023/07/02 08:01:46;;;;;;;25.50;16.43;;;;;;;;;;5054264;28;20383;-82
2023/07/02 08:04:12;;;;;;;33.80;13.90;;;;;;;;;;5036287;28;20431;-84
2023/07/02 08:06:38;;;;;;;24.47;14.73;;;;;;;;;;5052699;28;20426;-82
2023/07/02 08:09:04;;;;;;;26.83;15.57;;;;;;;;;;5052855;28;20823;-82
2023/07/02 08:11:30;;;;;;;26.20;14.70;;;;;;;;;;5053513;28;20408;-82
2023/07/02 08:13:56;;;;;;;22.50;14.10;;;;;;;;;;5053827;28;20564;-83
2023/07/02 08:16:22;;;;;;;29.33;14.13;;;;;;;;;;5053692;28;20462;-83
2023/07/02 08:18:48;;;;;;;31.70;14.87;;;;;;;;;;5036259;28;20454;-82
2023/07/02 08:21:14;;;;;;;28.20;16.13;;;;;;;;;;5052156;28;20844;-83
2023/07/02 08:23:40;;;;;;;27.63;15.37;;;;;;;;;;5052534;28;20402;-83
2023/07/02 08:26:06;;;;;;;27.03;13.60;;;;;;;;;;5052449;28;20423;-82
2023/07/02 08:28:32;;;;;;;25.70;14.37;;;;;;;;;;5053620;28;20405;-81
2023/07/02 08:30:59;;;;;;;25.70;13.90;;;;;;;;;;5036362;28;20423;-83
2023/07/02 08:33:25;;;;;;;24.93;12.10;;;;;;;;;;5053681;28;20478;-83
2023/07/02 08:35:51;;;;;;;26.90;14.00;;;;;;;;;;5052167;28;20467;-84
2023/07/02 08:38:17;;;;;;;24.17;12.70;;;;;;;;;;5052288;28;20382;-83
2023/07/02 08:40:43;;;;;;;30.63;15.10;;;;;;;;;;5052438;28;20408;-83
2023/07/02 08:43:09;;;;;;;27.37;14.67;;;;;;;;;;5053208;28;20597;-83
2023/07/02 08:45:35;;;;;;;23.77;12.30;;;;;;;;;;5036405;28;20395;-83
2023/07/02 08:48:01;;;;;;;31.00;15.23;;;;;;;;;;5052957;28;20767;-85
2023/07/02 08:50:27;;;;;;;22.53;13.40;;;;;;;;;;5052421;28;20419;-83
2023/07/02 08:52:54;;;;;;;22.00;13.77;;;;;;;;;;5054271;28;20568;-83
2023/07/02 08:55:22;;;;;;;24.50;13.00;;;;;;;;;;5055621;28;20433;-83
2023/07/02 08:57:50;;;;;;;27.83;14.73;;;;;;;;;;5040267;28;20398;-84
2023/07/02 09:00:17;;;;;;;24.73;14.47;;;;;;;;;;5056798;28;20379;-84
2023/07/02 09:02:43;;;;;;;23.00;13.93;;;;;;;;;;5056091;28;20896;-84
2023/07/02 09:05:09;;;;;;;30.17;14.00;;;;;;;;;;5039486;28;20423;-83
2023/07/02 09:07:44;;;;;;;27.20;15.77;;;;;;;;;;5055427;28;20898;-83
2023/07/02 09:10:10;;;;;;;31.57;15.40;;;;;;;;;;5055848;28;20410;-84
2023/07/02 09:12:38;;;;;;;23.97;14.83;;;;;;;;;;5057126;28;20811;-84
2023/07/02 09:15:06;;;;;;;29.87;16.13;;;;;;;;;;5055850;28;20431;-83
2023/07/02 09:17:33;;;;;;;26.27;13.37;;;;;;;;;;5055298;28;20416;-85
2023/07/02 09:20:01;;;;;;;26.50;15.20;;;;;;;;;;5055555;28;20386;-83
2023/07/02 09:22:27;;;;;;;23.50;14.27;;;;;;;;;;5057006;28;20404;-85
2023/07/02 09:24:54;;;;;;;28.60;14.33;;;;;;;;;;5055578;28;20892;-84
2023/07/02 09:27:20;;;;;;;25.83;15.43;;;;;;;;;;5055150;28;20416;-84
2023/07/02 09:29:52;;;;;;;29.50;15.07;;;;;;;;;;5057311;28;20446;-83
2023/07/02 09:32:25;;;;;;;30.87;14.43;;;;;;;;;;5056465;28;20359;-84
2023/07/02 09:34:51;;;;;;;25.60;14.97;;;;;;;;;;5055265;28;20412;-81
2023/07/02 09:37:17;;;;;;;28.67;15.43;;;;;;;;;;5055108;28;20880;-84
2023/07/02 09:39:43;;;;;;;29.17;16.73;;;;;;;;;;5055009;28;20474;-84
2023/07/02 09:42:10;;;;;;;30.00;15.60;;;;;;;;;;5055264;28;20415;-83
2023/07/02 09:44:36;;;;;;;23.93;13.47;;;;;;;;;;5056501;28;20517;-83
2023/07/02 09:47:03;;;;;;;20.83;13.50;;;;;;;;;;5055252;28;20383;-84
2023/07/02 09:49:32;;;;;;;24.63;12.47;;;;;;;;;;5054791;28;20534;-83
2023/07/02 09:51:59;;;;;;;25.77;14.13;;;;;;;;;;5055265;28;20405;-82
2023/07/02 09:54:25;;;;;;;23.83;12.57;;;;;;;;;;5056029;28;20558;-84
2023/07/02 09:56:51;;;;;;;24.40;14.30;;;;;;;;;;5054935;28;20844;-83
2023/07/02 09:59:17;;;;;;;24.97;14.70;;;;;;;;;;5054777;28;20523;-83
2023/07/02 10:01:43;;;;;;;20.87;13.63;;;;;;;;;;5055248;28;20412;-82
2023/07/02 10:04:18;;;;;;;19.50;13.57;;;;;;;;;;5054111;28;20912;-83
2023/07/02 10:06:51;;;;;;;22.60;13.93;;;;;;;;;;5056654;28;20456;-83
2023/07/02 10:09:17;;;;;;;24.10;13.50;;;;;;;;;;5054804;28;20408;-82
2023/07/02 10:11:44;;;;;;;28.57;11.90;;;;;;;;;;5055199;28;20419;-81
2023/07/02 10:14:10;;;;;;;20.43;11.33;;;;;;;;;;5038269;28;20510;-83
2023/07/02 10:16:48;;;;;;;18.37;12.03;;;;;;;;;;5054603;28;20440;-83
2023/07/02 10:19:14;;;;;;;29.90;13.60;;;;;;;;;;5055726;28;20403;-83
2023/07/02 10:21:40;;;;;;;19.93;13.90;;;;;;;;;;5054741;28;20915;-82
2023/07/02 10:24:13;;;;;;;16.67;11.70;;;;;;;;;;5038259;28;20402;-82
2023/07/02 10:26:39;;;;;;;22.87;12.23;;;;;;;;;;5055881;28;20382;-83
2023/07/02 10:29:07;;;;;;;27.07;12.20;;;;;;;;;;5037964;28;20542;-82
2023/07/02 10:31:33;;;;;;;24.63;13.10;;;;;;;;;;5055597;28;20397;-83
2023/07/02 10:33:59;;;;;;;19.30;13.00;;;;;;;;;;5054066;28;20446;-82
2023/07/02 10:36:25;;;;;;;25.40;12.70;;;;;;;;;;5054025;28;20432;-82
2023/07/02 10:38:51;;;;;;;19.40;12.40;;;;;;;;;;5055274;28;20402;-82
2023/07/02 10:41:25;;;;;;;22.70;13.53;;;;;;;;;;5055439;28;20423;-84
2023/07/02 10:43:51;;;;;;;24.00;13.47;;;;;;;;;;5055191;28;20521;-84
2023/07/02 10:46:23;;;;;;;18.13;11.00;;;;;;;;;;5055108;28;20375;-84
2023/07/02 10:48:55;;;;;;;22.20;12.97;;;;;;;;;;5032661;28;20425;-83
2023/07/02 10:51:22;;;;;;;23.60;13.40;;;;;;;;;;5033758;28;20372;-82
2023/07/02 10:53:58;;;;;;;25.80;14.33;;;;;;;;;;5035444;28;20887;-83
2023/07/02 10:56:25;;;;;;;21.97;14.07;;;;;;;;;;5033818;28;20426;-83
2023/07/02 10:58:51;;;;;;;24.07;13.33;;;;;;;;;;5033732;28;20432;-83
2023/07/02 11:01:28;;;;;;;18.90;12.40;;;;;;;;;;5033784;28;20836;-84
2023/07/02 11:04:01;;;;;;;20.83;14.03;;;;;;;;;;5045258;28;20520;-82
2023/07/02 11:06:28;;;;;;;22.33;13.20;;;;;;;;;;5053459;28;20394;-82
2023/07/02 11:08:55;;;;;;;22.93;14.20;;;;;;;;;;5037180;28;20491;-82
2023/07/02 11:11:21;;;;;;;21.30;11.37;;;;;;;;;;5053009;28;20870;-84
2023/07/02 11:13:48;;;;;;;27.53;15.10;;;;;;;;;;5054759;28;20542;-83
2023/07/02 11:16:24;;;;;;;25.37;14.30;;;;;;;;;;5053605;28;20882;-82
2023/07/02 11:18:50;;;;;;;21.10;13.07;;;;;;;;;;5053437;28;20415;-83
2023/07/02 11:21:16;;;;;;;22.10;11.23;;;;;;;;;;5053401;28;20860;-82
2023/07/02 11:23:42;;;;;;;18.43;12.23;;;;;;;;;;5053350;28;20422;-84
2023/07/02 11:26:08;;;;;;;23.20;12.03;;;;;;;;;;5053685;28;20458;-83
2023/07/02 11:28:34;;;;;;;16.57;10.57;;;;;;;;;;5054926;28;20420;-83
2023/07/02 11:31:02;;;;;;;19.77;9.90;;;;;;;;;;5053567;28;20502;-82
2023/07/02 11:33:34;;;;;;;17.97;12.17;;;;;;;;;;5054169;28;20468;-82
2023/07/02 11:36:00;;;;;;;17.30;10.80;;;;;;;;;;5054768;28;20401;-83
2023/07/02 11:38:26;;;;;;;19.17;11.80;;;;;;;;;;5054487;28;20416;-82
2023/07/02 11:40:52;;;;;;;27.37;11.27;;;;;;;;;;5053361;28;20908;-83
2023/07/02 11:43:18;;;;;;;22.77;11.57;;;;;;;;;;5036498;28;20499;-83
2023/07/02 11:45:45;;;;;;;25.47;11.60;;;;;;;;;;5053928;28;20442;-82
2023/07/02 11:48:12;;;;;;;18.63;9.87;;;;;;;;;;5054474;28;20413;-82
2023/07/02 11:50:38;;;;;;;20.20;9.50;;;;;;;;;;5052992;28;20417;-82
2023/07/02 11:53:04;;;;;;;22.37;8.83;;;;;;;;;;5054835;28;20467;-81
2023/07/02 11:55:31;;;;;;;16.23;9.20;;;;;;;;;;5053037;28;20408;-83
2023/07/02 11:57:57;;;;;;;21.03;11.13;;;;;;;;;;5052928;28;20416;-83
2023/07/02 12:00:23;;;;;;;14.50;8.40;;;;;;;;;;5053338;28;20512;-82
2023/07/02 12:02:49;;;;;;;11.80;7.50;;;;;;;;;;5053377;28;20394;-83
2023/07/02 12:05:15;;;;;;;17.27;8.50;;;;;;;;;;5054080;28;20415;-82
2023/07/02 12:07:41;;;;;;;15.33;9.10;;;;;;;;;;5053975;28;20412;-81
2023/07/02 12:10:08;;;;;;;19.90;9.00;;;;;;;;;;5036569;28;20448;-83
2023/07/02 12:12:34;;;;;;;14.30;8.43;;;;;;;;;;5052514;28;20393;-83
2023/07/02 12:15:00;;;;;;;16.80;9.33;;;;;;;;;;5054428;28;20776;-84
2023/07/02 12:17:26;;;;;;;16.23;9.23;;;;;;;;;;5052569;28;20438;-83
2023/07/02 12:19:51;;;;;;;14.07;9.13;;;;;;;;;;5052619;28;20416;-82
2023/07/02 12:22:18;;;;;;;17.23;9.10;;;;;;;;;;5052466;28;20444;-84
2023/07/02 12:24:44;;;;;;;15.60;9.00;;;;;;;;;;5052481;28;20424;-83
2023/07/02 12:27:10;;;;;;;22.83;9.67;;;;;;;;;;5054019;28;20750;-83
2023/07/02 12:29:36;;;;;;;17.43;9.23;;;;;;;;;;5058187;28;20442;-83
2023/07/02 12:32:02;;;;;;;20.27;8.87;;;;;;;;;;5056622;28;20427;-84
2023/07/02 12:34:29;;;;;;;17.63;9.50;;;;;;;;;;5056262;28;20493;-84
2023/07/02 12:36:55;;;;;;;18.50;9.93;;;;;;;;;;5057626;28;20431;-83
2023/07/02 12:39:21;;;;;;;16.80;9.23;;;;;;;;;;5056380;28;20881;-83
2023/07/02 12:41:47;;;;;;;17.07;9.70;;;;;;;;;;5057915;28;20411;-83
2023/07/02 12:44:13;;;;;;;17.30;10.70;;;;;;;;;;5056348;28;20434;-83
2023/07/02 12:46:39;;;;;;;24.80;10.90;;;;;;;;;;5056831;28;20428;-82
2023/07/02 12:49:05;;;;;;;17.33;10.10;;;;;;;;;;5056628;28;20412;-82
2023/07/02 12:51:31;;;;;;;17.37;8.60;;;;;;;;;;5057534;28;20515;-82
2023/07/02 12:53:57;;;;;;;18.87;9.97;;;;;;;;;;5056445;28;20906;-85
2023/07/02 12:56:23;;;;;;;19.57;11.07;;;;;;;;;;5056114;28;20485;-88
2023/07/02 12:58:51;;;;;;;20.20;10.50;;;;;;;;;;5057622;28;20430;-82
2023/07/02 13:01:17;;;;;;;19.27;10.00;;;;;;;;;;5056665;28;20395;-84
2023/07/02 13:03:49;;;;;;;13.70;10.17;;;;;;;;;;5039613;28;20513;-83
2023/07/02 13:06:16;;;;;;;18.70;11.23;;;;;;;;;;5056116;28;20387;-83
2023/07/02 13:08:42;;;;;;;19.00;10.70;;;;;;;;;;5055983;28;20541;-83
2023/07/02 13:11:08;;;;;;;18.27;10.67;;;;;;;;;;5057331;28;20378;-83
2023/07/02 13:13:36;;;;;;;16.97;11.17;;;;;;;;;;5056908;28;20531;-82
2023/07/02 13:16:02;;;;;;;20.50;11.50;;;;;;;;;;5057397;28;20443;-82
2023/07/02 13:18:28;;;;;;;17.63;10.77;;;;;;;;;;5056691;28;20447;-84
2023/07/02 13:20:54;;;;;;;17.07;10.17;;;;;;;;;;5057115;28;20408;-83
2023/07/02 13:23:20;;;;;;;22.00;11.50;;;;;;;;;;5055993;28;20422;-83
2023/07/02 13:25:46;;;;;;;21.23;11.73;;;;;;;;;;5055487;28;20412;-84
2023/07/02 13:28:11;;;;;;;17.23;10.07;;;;;;;;;;5039382;28;20435;-84
2023/07/02 13:30:37;;;;;;;18.40;10.37;;;;;;;;;;5055813;28;20412;-83
2023/07/02 13:33:04;;;;;;;19.50;10.70;;;;;;;;;;5056222;28;20452;-83
2023/07/02 13:35:31;;;;;;;18.33;10.33;;;;;;;;;;5055295;28;20430;-84
2023/07/02 13:37:59;;;;;;;14.10;10.13;;;;;;;;;;5038881;28;20511;-83
2023/07/02 13:40:25;;;;;;;20.93;11.07;;;;;;;;;;5055138;28;20423;-82
2023/07/02 13:42:51;;;;;;;16.40;9.90;;;;;;;;;;5054873;28;20471;-83
2023/07/02 13:45:17;;;;;;;14.57;10.23;;;;;;;;;;5055117;28;20412;-83
2023/07/02 13:47:43;;;;;;;21.20;11.93;;;;;;;;;;5055189;28;20431;-83
2023/07/02 13:50:09;;;;;;;20.57;11.37;;;;;;;;;;5056483;28;20408;-84
2023/07/02 13:52:35;;;;;;;22.70;11.47;;;;;;;;;;5055898;28;20427;-83
2023/07/02 13:55:01;;;;;;;18.90;9.90;;;;;;;;;;5055133;28;20904;-82
2023/07/02 13:57:27;;;;;;;18.83;11.17;;;;;;;;;;5056460;28;20745;-85
2023/07/02 13:59:54;;;;;;;16.60;9.47;;;;;;;;;;5055311;28;20427;-83
2023/07/02 14:02:20;;;;;;;18.90;10.27;;;;;;;;;;5055040;28;20429;-84
2023/07/02 14:04:46;;;;;;;18.17;10.73;;;;;;;;;;5055967;28;20396;-83
2023/07/02 14:07:12;;;;;;;21.53;11.20;;;;;;;;;;5054928;28;20849;-82
2023/07/02 14:09:38;;;;;;;19.33;11.43;;;;;;;;;;5037672;28;20420;-83
2023/07/02 14:12:04;;;;;;;18.57;11.67;;;;;;;;;;5054895;28;20404;-82
2023/07/02 14:14:30;;;;;;;15.20;10.10;;;;;;;;;;5055667;28;20452;-82
2023/07/02 14:16:56;;;;;;;19.00;10.53;;;;;;;;;;5054847;28;20470;-84